sensor_id;sensor_type;location;lat;lon;timestamp;P1;durP1;ratioP1;P2;durP2;ratioP2
20635;SDS011;10477;43.198;27.916;2022-07-29T00:00:16;74.60;;;68.12;;
20635;SDS011;10477;43.198;27.916;2022-07-29T00:02:43;72.32;;;66.02;;
20635;SDS011;10477;43.198;27.916;2022-07-29T00:05:11;75.78;;;69.32;;
20635;SDS011;10477;43.198;27.916;2022-07-29T00:07:39;73.70;;;67.40;;
20635;SDS011;10477;43.198;27.916;2022-07-29T00:10:07;74.90;;;68.60;;
20635;SDS011;10477;43.198;27.916;2022-07-29T00:12:35;74.40;;;67.92;;
20635;SDS011;10477;43.198;27.916;2022-07-29T00:15:03;76.33;;;69.87;;
20635;SDS011;10477;43.198;27.916;2022-07-29T00:17:31;75.30;;;68.87;;
20635;SDS011;10477;43.198;27.916;2022-07-29T00:19:59;74.20;;;67.87;;
20635;SDS011;10477;43.198;27.916;2022-07-29T00:22:27;72.97;;;66.72;;
20635;SDS011;10477;43.198;27.916;2022-07-29T00:24:54;70.87;;;64.58;;
20635;SDS011;10477;43.198;27.916;2022-07-29T00:27:22;71.80;;;65.60;;
20635;SDS011;10477;43.198;27.916;2022-07-29T00:29:49;72.05;;;65.75;;
20635;SDS011;10477;43.198;27.916;2022-07-29T00:32:17;74.45;;;68.07;;
20635;SDS011;10477;43.198;27.916;2022-07-29T00:34:45;72.05;;;65.75;;
20635;SDS011;10477;43.198;27.916;2022-07-29T00:37:30;73.27;;;66.97;;
20635;SDS011;10477;43.198;27.916;2022-07-29T00:39:58;73.22;;;66.92;;
20635;SDS011;10477;43.198;27.916;2022-07-29T00:42:26;69.37;;;63.28;;
20635;SDS011;10477;43.198;27.916;2022-07-29T00:44:53;70.90;;;64.80;;
20635;SDS011;10477;43.198;27.916;2022-07-29T00:47:21;70.25;;;64.25;;
20635;SDS011;10477;43.198;27.916;2022-07-29T00:49:48;72.03;;;65.80;;
20635;SDS011;10477;43.198;27.916;2022-07-29T00:52:16;71.65;;;65.45;;
20635;SDS011;10477;43.198;27.916;2022-07-29T00:54:44;70.32;;;64.12;;
20635;SDS011;10477;43.198;27.916;2022-07-29T00:57:13;71.23;;;65.13;;
20635;SDS011;10477;43.198;27.916;2022-07-29T00:59:41;69.87;;;63.78;;
20635;SDS011;10477;43.198;27.916;2022-07-29T01:02:09;80.27;;;73.13;;
20635;SDS011;10477;43.198;27.916;2022-07-29T01:04:37;69.92;;;63.92;;
20635;SDS011;10477;43.198;27.916;2022-07-29T01:07:05;74.27;;;67.82;;
20635;SDS011;10477;43.198;27.916;2022-07-29T01:09:33;73.85;;;67.55;;
20635;SDS011;10477;43.198;27.916;2022-07-29T01:12:04;70.27;;;63.30;;
20635;SDS011;10477;43.198;27.916;2022-07-29T01:14:32;70.42;;;64.42;;
20635;SDS011;10477;43.198;27.916;2022-07-29T01:17:17;71.55;;;65.45;;
20635;SDS011;10477;43.198;27.916;2022-07-29T01:22:37;70.83;;;64.72;;
20635;SDS011;10477;43.198;27.916;2022-07-29T01:27:57;76.10;;;69.65;;
20635;SDS011;10477;43.198;27.916;2022-07-29T01:30:24;71.40;;;65.40;;
20635;SDS011;10477;43.198;27.916;2022-07-29T01:32:57;79.05;;;72.53;;
20635;SDS011;10477;43.198;27.916;2022-07-29T01:35:26;78.07;;;71.63;;
20635;SDS011;10477;43.198;27.916;2022-07-29T01:38:12;80.73;;;73.87;;
20635;SDS011;10477;43.198;27.916;2022-07-29T01:40:48;76.70;;;70.10;;
20635;SDS011;10477;43.198;27.916;2022-07-29T01:43:18;77.27;;;70.78;;
20635;SDS011;10477;43.198;27.916;2022-07-29T01:45:52;76.93;;;70.37;;
20635;SDS011;10477;43.198;27.916;2022-07-29T01:48:22;76.25;;;69.65;;
20635;SDS011;10477;43.198;27.916;2022-07-29T01:50:53;82.02;;;75.12;;
20635;SDS011;10477;43.198;27.916;2022-07-29T01:53:35;79.00;;;72.20;;
20635;SDS011;10477;43.198;27.916;2022-07-29T01:56:14;79.40;;;72.23;;
20635;SDS011;10477;43.198;27.916;2022-07-29T01:58:44;81.37;;;74.53;;
20635;SDS011;10477;43.198;27.916;2022-07-29T02:01:14;80.47;;;73.15;;
20635;SDS011;10477;43.198;27.916;2022-07-29T02:03:44;78.17;;;71.15;;
20635;SDS011;10477;43.198;27.916;2022-07-29T02:06:15;79.25;;;72.55;;
20635;SDS011;10477;43.198;27.916;2022-07-29T02:08:44;83.10;;;75.13;;
20635;SDS011;10477;43.198;27.916;2022-07-29T02:11:14;83.77;;;76.57;;
20635;SDS011;10477;43.198;27.916;2022-07-29T02:13:42;81.00;;;74.30;;
20635;SDS011;10477;43.198;27.916;2022-07-29T02:16:12;82.37;;;75.13;;
20635;SDS011;10477;43.198;27.916;2022-07-29T02:18:41;83.23;;;76.20;;
20635;SDS011;10477;43.198;27.916;2022-07-29T02:21:12;89.93;;;80.87;;
20635;SDS011;10477;43.198;27.916;2022-07-29T02:23:43;84.13;;;77.20;;
20635;SDS011;10477;43.198;27.916;2022-07-29T02:26:12;76.27;;;69.67;;
20635;SDS011;10477;43.198;27.916;2022-07-29T02:28:41;80.40;;;73.50;;
20635;SDS011;10477;43.198;27.916;2022-07-29T02:31:09;79.87;;;73.07;;
20635;SDS011;10477;43.198;27.916;2022-07-29T02:33:39;78.60;;;71.80;;
20635;SDS011;10477;43.198;27.916;2022-07-29T02:36:08;81.30;;;74.30;;
20635;SDS011;10477;43.198;27.916;2022-07-29T02:38:37;83.60;;;76.40;;
20635;SDS011;10477;43.198;27.916;2022-07-29T02:41:29;83.78;;;76.50;;
20635;SDS011;10477;43.198;27.916;2022-07-29T02:44:01;81.67;;;74.57;;
20635;SDS011;10477;43.198;27.916;2022-07-29T02:46:32;79.80;;;72.90;;
20635;SDS011;10477;43.198;27.916;2022-07-29T02:51:51;79.80;;;72.93;;
20635;SDS011;10477;43.198;27.916;2022-07-29T02:54:31;79.07;;;72.37;;
20635;SDS011;10477;43.198;27.916;2022-07-29T02:57:14;77.80;;;71.20;;
20635;SDS011;10477;43.198;27.916;2022-07-29T02:59:51;83.73;;;76.73;;
20635;SDS011;10477;43.198;27.916;2022-07-29T03:02:21;82.60;;;75.47;;
20635;SDS011;10477;43.198;27.916;2022-07-29T03:04:49;82.37;;;75.30;;
20635;SDS011;10477;43.198;27.916;2022-07-29T03:07:19;77.20;;;70.60;;
20635;SDS011;10477;43.198;27.916;2022-07-29T03:09:48;82.73;;;74.47;;
20635;SDS011;10477;43.198;27.916;2022-07-29T03:12:18;81.07;;;74.07;;
20635;SDS011;10477;43.198;27.916;2022-07-29T03:14:47;77.83;;;71.30;;
20635;SDS011;10477;43.198;27.916;2022-07-29T03:17:15;75.87;;;69.58;;
20635;SDS011;10477;43.198;27.916;2022-07-29T03:19:43;75.53;;;69.63;;
20635;SDS011;10477;43.198;27.916;2022-07-29T03:22:12;79.50;;;72.20;;
20635;SDS011;10477;43.198;27.916;2022-07-29T03:24:40;75.40;;;70.00;;
20635;SDS011;10477;43.198;27.916;2022-07-29T03:27:08;71.55;;;66.45;;
20635;SDS011;10477;43.198;27.916;2022-07-29T03:29:36;65.08;;;60.08;;
20635;SDS011;10477;43.198;27.916;2022-07-29T03:32:04;61.23;;;56.83;;
20635;SDS011;10477;43.198;27.916;2022-07-29T03:34:33;55.75;;;51.68;;
20635;SDS011;10477;43.198;27.916;2022-07-29T03:37:01;52.10;;;48.38;;
20635;SDS011;10477;43.198;27.916;2022-07-29T03:39:29;46.65;;;43.02;;
20635;SDS011;10477;43.198;27.916;2022-07-29T03:41:59;45.98;;;42.58;;
20635;SDS011;10477;43.198;27.916;2022-07-29T03:44:29;39.95;;;36.98;;
20635;SDS011;10477;43.198;27.916;2022-07-29T03:46:59;37.30;;;34.23;;
20635;SDS011;10477;43.198;27.916;2022-07-29T03:49:30;38.70;;;35.70;;
20635;SDS011;10477;43.198;27.916;2022-07-29T03:51:59;34.25;;;31.65;;
20635;SDS011;10477;43.198;27.916;2022-07-29T03:54:27;30.48;;;28.10;;
20635;SDS011;10477;43.198;27.916;2022-07-29T03:56:57;29.40;;;27.00;;
20635;SDS011;10477;43.198;27.916;2022-07-29T03:59:25;33.48;;;30.77;;
20635;SDS011;10477;43.198;27.916;2022-07-29T04:01:55;28.95;;;26.65;;
20635;SDS011;10477;43.198;27.916;2022-07-29T04:04:24;27.85;;;25.55;;
20635;SDS011;10477;43.198;27.916;2022-07-29T04:06:52;26.93;;;24.72;;
20635;SDS011;10477;43.198;27.916;2022-07-29T04:09:19;26.90;;;24.60;;
20635;SDS011;10477;43.198;27.916;2022-07-29T04:11:47;27.05;;;24.85;;
20635;SDS011;10477;43.198;27.916;2022-07-29T04:14:14;26.20;;;24.05;;
20635;SDS011;10477;43.198;27.916;2022-07-29T04:16:42;25.72;;;23.52;;
20635;SDS011;10477;43.198;27.916;2022-07-29T04:19:10;23.87;;;21.87;;
20635;SDS011;10477;43.198;27.916;2022-07-29T04:21:38;24.90;;;22.75;;
20635;SDS011;10477;43.198;27.916;2022-07-29T04:24:07;25.62;;;23.42;;
20635;SDS011;10477;43.198;27.916;2022-07-29T04:26:35;25.72;;;23.60;;
20635;SDS011;10477;43.198;27.916;2022-07-29T04:29:03;24.35;;;22.25;;
20635;SDS011;10477;43.198;27.916;2022-07-29T04:31:31;25.88;;;23.57;;
20635;SDS011;10477;43.198;27.916;2022-07-29T04:33:58;27.32;;;25.02;;
20635;SDS011;10477;43.198;27.916;2022-07-29T04:36:26;26.40;;;24.23;;
20635;SDS011;10477;43.198;27.916;2022-07-29T04:38:54;27.40;;;25.10;;
20635;SDS011;10477;43.198;27.916;2022-07-29T04:41:21;26.42;;;23.77;;
20635;SDS011;10477;43.198;27.916;2022-07-29T04:43:49;26.80;;;24.40;;
20635;SDS011;10477;43.198;27.916;2022-07-29T04:46:16;27.25;;;24.75;;
20635;SDS011;10477;43.198;27.916;2022-07-29T04:48:47;26.80;;;24.60;;
20635;SDS011;10477;43.198;27.916;2022-07-29T04:51:15;27.40;;;25.12;;
20635;SDS011;10477;43.198;27.916;2022-07-29T04:53:43;25.50;;;23.30;;
20635;SDS011;10477;43.198;27.916;2022-07-29T04:56:12;33.90;;;31.10;;
20635;SDS011;10477;43.198;27.916;2022-07-29T04:58:40;28.55;;;26.23;;
20635;SDS011;10477;43.198;27.916;2022-07-29T05:01:08;27.10;;;24.80;;
20635;SDS011;10477;43.198;27.916;2022-07-29T05:03:37;28.30;;;25.87;;
20635;SDS011;10477;43.198;27.916;2022-07-29T05:06:04;29.63;;;26.95;;
20635;SDS011;10477;43.198;27.916;2022-07-29T05:08:32;31.82;;;29.12;;
20635;SDS011;10477;43.198;27.916;2022-07-29T05:11:00;29.30;;;26.87;;
20635;SDS011;10477;43.198;27.916;2022-07-29T05:13:27;31.60;;;29.10;;
20635;SDS011;10477;43.198;27.916;2022-07-29T05:15:55;29.23;;;26.82;;
20635;SDS011;10477;43.198;27.916;2022-07-29T05:18:24;32.48;;;29.85;;
20635;SDS011;10477;43.198;27.916;2022-07-29T05:20:52;26.80;;;24.50;;
20635;SDS011;10477;43.198;27.916;2022-07-29T05:23:20;28.15;;;25.85;;
20635;SDS011;10477;43.198;27.916;2022-07-29T05:25:48;25.80;;;23.70;;
20635;SDS011;10477;43.198;27.916;2022-07-29T05:28:16;25.72;;;23.52;;
20635;SDS011;10477;43.198;27.916;2022-07-29T05:30:43;27.17;;;24.90;;
20635;SDS011;10477;43.198;27.916;2022-07-29T05:33:11;28.30;;;25.80;;
20635;SDS011;10477;43.198;27.916;2022-07-29T05:35:38;35.55;;;32.88;;
20635;SDS011;10477;43.198;27.916;2022-07-29T05:38:06;27.02;;;24.82;;
20635;SDS011;10477;43.198;27.916;2022-07-29T05:40:34;25.30;;;23.20;;
20635;SDS011;10477;43.198;27.916;2022-07-29T05:43:05;26.70;;;24.32;;
20635;SDS011;10477;43.198;27.916;2022-07-29T05:45:33;27.42;;;25.12;;
20635;SDS011;10477;43.198;27.916;2022-07-29T05:48:01;27.10;;;24.80;;
20635;SDS011;10477;43.198;27.916;2022-07-29T05:50:29;27.27;;;24.90;;
20635;SDS011;10477;43.198;27.916;2022-07-29T05:52:57;26.20;;;24.05;;
20635;SDS011;10477;43.198;27.916;2022-07-29T05:55:25;27.30;;;24.90;;
20635;SDS011;10477;43.198;27.916;2022-07-29T05:57:55;26.57;;;24.27;;
20635;SDS011;10477;43.198;27.916;2022-07-29T06:00:23;29.20;;;26.80;;
20635;SDS011;10477;43.198;27.916;2022-07-29T06:02:51;26.75;;;24.45;;
20635;SDS011;10477;43.198;27.916;2022-07-29T06:05:20;27.45;;;25.05;;
20635;SDS011;10477;43.198;27.916;2022-07-29T06:07:48;30.88;;;28.20;;
20635;SDS011;10477;43.198;27.916;2022-07-29T06:10:15;27.85;;;25.35;;
20635;SDS011;10477;43.198;27.916;2022-07-29T06:12:44;25.75;;;23.42;;
20635;SDS011;10477;43.198;27.916;2022-07-29T06:15:12;26.93;;;24.52;;
20635;SDS011;10477;43.198;27.916;2022-07-29T06:17:40;29.87;;;27.13;;
20635;SDS011;10477;43.198;27.916;2022-07-29T06:20:08;27.48;;;25.08;;
20635;SDS011;10477;43.198;27.916;2022-07-29T06:22:38;28.45;;;26.05;;
20635;SDS011;10477;43.198;27.916;2022-07-29T06:25:06;28.55;;;26.15;;
20635;SDS011;10477;43.198;27.916;2022-07-29T06:27:35;27.55;;;25.15;;
20635;SDS011;10477;43.198;27.916;2022-07-29T06:30:02;26.27;;;23.98;;
20635;SDS011;10477;43.198;27.916;2022-07-29T06:32:33;29.85;;;27.40;;
20635;SDS011;10477;43.198;27.916;2022-07-29T06:35:05;28.52;;;26.12;;
20635;SDS011;10477;43.198;27.916;2022-07-29T06:37:33;30.50;;;28.10;;
20635;SDS011;10477;43.198;27.916;2022-07-29T06:40:01;31.77;;;29.18;;
20635;SDS011;10477;43.198;27.916;2022-07-29T06:42:49;30.40;;;27.90;;
20635;SDS011;10477;43.198;27.916;2022-07-29T06:45:16;30.95;;;28.65;;
20635;SDS011;10477;43.198;27.916;2022-07-29T06:47:44;29.25;;;26.95;;
20635;SDS011;10477;43.198;27.916;2022-07-29T06:50:12;28.87;;;26.77;;
20635;SDS011;10477;43.198;27.916;2022-07-29T06:52:40;29.70;;;27.40;;
20635;SDS011;10477;43.198;27.916;2022-07-29T06:55:08;29.10;;;26.93;;
20635;SDS011;10477;43.198;27.916;2022-07-29T06:57:36;32.30;;;29.90;;
20635;SDS011;10477;43.198;27.916;2022-07-29T07:00:04;32.48;;;29.98;;
20635;SDS011;10477;43.198;27.916;2022-07-29T07:02:33;32.65;;;30.35;;
20635;SDS011;10477;43.198;27.916;2022-07-29T07:05:00;30.57;;;28.27;;
20635;SDS011;10477;43.198;27.916;2022-07-29T07:07:31;29.87;;;27.67;;
20635;SDS011;10477;43.198;27.916;2022-07-29T07:09:59;38.60;;;33.88;;
20635;SDS011;10477;43.198;27.916;2022-07-29T07:12:27;28.50;;;26.50;;
20635;SDS011;10477;43.198;27.916;2022-07-29T07:14:55;33.08;;;30.77;;
20635;SDS011;10477;43.198;27.916;2022-07-29T07:17:22;29.02;;;26.87;;
20635;SDS011;10477;43.198;27.916;2022-07-29T07:19:50;30.13;;;28.03;;
20635;SDS011;10477;43.198;27.916;2022-07-29T07:22:18;28.52;;;26.52;;
20635;SDS011;10477;43.198;27.916;2022-07-29T07:24:47;29.18;;;27.07;;
20635;SDS011;10477;43.198;27.916;2022-07-29T07:27:15;25.10;;;23.20;;
20635;SDS011;10477;43.198;27.916;2022-07-29T07:29:42;24.72;;;22.93;;
20635;SDS011;10477;43.198;27.916;2022-07-29T07:32:10;24.25;;;22.45;;
20635;SDS011;10477;43.198;27.916;2022-07-29T07:34:38;26.33;;;24.32;;
20635;SDS011;10477;43.198;27.916;2022-07-29T07:37:06;31.00;;;28.90;;
20635;SDS011;10477;43.198;27.916;2022-07-29T07:39:34;25.80;;;23.90;;
20635;SDS011;10477;43.198;27.916;2022-07-29T07:42:02;25.20;;;23.30;;
20635;SDS011;10477;43.198;27.916;2022-07-29T07:44:30;25.77;;;23.87;;
20635;SDS011;10477;43.198;27.916;2022-07-29T07:46:59;26.25;;;24.35;;
20635;SDS011;10477;43.198;27.916;2022-07-29T07:49:26;25.40;;;23.60;;
20635;SDS011;10477;43.198;27.916;2022-07-29T07:51:54;28.45;;;26.45;;
20635;SDS011;10477;43.198;27.916;2022-07-29T07:54:22;26.62;;;24.60;;
20635;SDS011;10477;43.198;27.916;2022-07-29T07:56:49;24.47;;;22.67;;
20635;SDS011;10477;43.198;27.916;2022-07-29T07:59:17;30.85;;;28.75;;
20635;SDS011;10477;43.198;27.916;2022-07-29T08:01:45;25.70;;;23.87;;
20635;SDS011;10477;43.198;27.916;2022-07-29T08:04:12;24.77;;;22.98;;
20635;SDS011;10477;43.198;27.916;2022-07-29T08:06:42;26.65;;;24.75;;
20635;SDS011;10477;43.198;27.916;2022-07-29T08:09:09;22.62;;;20.92;;
20635;SDS011;10477;43.198;27.916;2022-07-29T08:11:37;23.00;;;21.30;;
20635;SDS011;10477;43.198;27.916;2022-07-29T08:14:04;22.60;;;21.00;;
20635;SDS011;10477;43.198;27.916;2022-07-29T08:16:32;21.55;;;19.95;;
20635;SDS011;10477;43.198;27.916;2022-07-29T08:19:00;22.80;;;21.00;;
20635;SDS011;10477;43.198;27.916;2022-07-29T08:21:29;21.77;;;20.08;;
20635;SDS011;10477;43.198;27.916;2022-07-29T08:23:57;22.98;;;21.27;;
20635;SDS011;10477;43.198;27.916;2022-07-29T08:26:42;22.30;;;20.60;;
20635;SDS011;10477;43.198;27.916;2022-07-29T08:29:11;21.82;;;20.12;;
20635;SDS011;10477;43.198;27.916;2022-07-29T08:31:39;21.55;;;19.95;;
20635;SDS011;10477;43.198;27.916;2022-07-29T08:34:09;21.77;;;20.10;;
20635;SDS011;10477;43.198;27.916;2022-07-29T08:36:37;21.80;;;20.10;;
20635;SDS011;10477;43.198;27.916;2022-07-29T08:39:05;21.97;;;20.27;;
20635;SDS011;10477;43.198;27.916;2022-07-29T08:41:33;20.85;;;19.15;;
20635;SDS011;10477;43.198;27.916;2022-07-29T08:44:02;21.02;;;19.32;;
20635;SDS011;10477;43.198;27.916;2022-07-29T08:46:30;21.68;;;19.98;;
20635;SDS011;10477;43.198;27.916;2022-07-29T08:48:58;20.97;;;19.37;;
20635;SDS011;10477;43.198;27.916;2022-07-29T08:51:26;20.80;;;19.20;;
20635;SDS011;10477;43.198;27.916;2022-07-29T08:53:54;21.80;;;20.20;;
20635;SDS011;10477;43.198;27.916;2022-07-29T08:56:23;21.80;;;20.10;;
20635;SDS011;10477;43.198;27.916;2022-07-29T08:58:50;21.87;;;20.17;;
20635;SDS011;10477;43.198;27.916;2022-07-29T09:01:23;22.27;;;20.27;;
20635;SDS011;10477;43.198;27.916;2022-07-29T09:03:54;22.07;;;20.37;;
20635;SDS011;10477;43.198;27.916;2022-07-29T09:06:22;21.80;;;20.00;;
20635;SDS011;10477;43.198;27.916;2022-07-29T09:08:54;21.00;;;19.40;;
20635;SDS011;10477;43.198;27.916;2022-07-29T09:11:24;22.58;;;20.88;;
20635;SDS011;10477;43.198;27.916;2022-07-29T09:13:52;21.35;;;19.75;;
20635;SDS011;10477;43.198;27.916;2022-07-29T09:16:19;21.10;;;19.40;;
20635;SDS011;10477;43.198;27.916;2022-07-29T09:18:47;21.97;;;20.27;;
20635;SDS011;10477;43.198;27.916;2022-07-29T09:21:15;21.55;;;19.85;;
20635;SDS011;10477;43.198;27.916;2022-07-29T09:24:14;20.80;;;19.20;;
20635;SDS011;10477;43.198;27.916;2022-07-29T09:26:42;21.80;;;20.20;;
20635;SDS011;10477;43.198;27.916;2022-07-29T09:29:12;23.85;;;22.15;;
20635;SDS011;10477;43.198;27.916;2022-07-29T09:31:46;21.37;;;19.77;;
20635;SDS011;10477;43.198;27.916;2022-07-29T09:34:28;20.77;;;19.17;;
20635;SDS011;10477;43.198;27.916;2022-07-29T09:36:53;21.00;;;19.40;;
20635;SDS011;10477;43.198;27.916;2022-07-29T09:39:28;21.62;;;20.00;;
20635;SDS011;10477;43.198;27.916;2022-07-29T09:42:00;21.82;;;20.20;;
20635;SDS011;10477;43.198;27.916;2022-07-29T09:44:45;22.50;;;20.80;;
20635;SDS011;10477;43.198;27.916;2022-07-29T09:47:15;23.32;;;21.62;;
20635;SDS011;10477;43.198;27.916;2022-07-29T09:49:53;23.07;;;21.37;;
20635;SDS011;10477;43.198;27.916;2022-07-29T09:52:26;23.67;;;21.87;;
20635;SDS011;10477;43.198;27.916;2022-07-29T09:55:09;22.07;;;20.48;;
20635;SDS011;10477;43.198;27.916;2022-07-29T09:57:35;23.30;;;21.50;;
20635;SDS011;10477;43.198;27.916;2022-07-29T10:00:14;21.05;;;19.45;;
20635;SDS011;10477;43.198;27.916;2022-07-29T10:02:44;21.90;;;20.30;;
20635;SDS011;10477;43.198;27.916;2022-07-29T10:05:22;21.15;;;19.55;;
20635;SDS011;10477;43.198;27.916;2022-07-29T10:07:51;21.15;;;19.55;;
20635;SDS011;10477;43.198;27.916;2022-07-29T10:10:23;23.07;;;21.27;;
20635;SDS011;10477;43.198;27.916;2022-07-29T10:12:56;22.90;;;21.17;;
20635;SDS011;10477;43.198;27.916;2022-07-29T10:15:27;22.80;;;21.10;;
20635;SDS011;10477;43.198;27.916;2022-07-29T10:17:58;24.20;;;22.42;;
20635;SDS011;10477;43.198;27.916;2022-07-29T10:20:27;21.75;;;20.15;;
20635;SDS011;10477;43.198;27.916;2022-07-29T10:22:55;21.00;;;19.50;;
20635;SDS011;10477;43.198;27.916;2022-07-29T10:25:24;21.77;;;20.08;;
20635;SDS011;10477;43.198;27.916;2022-07-29T10:27:52;22.02;;;20.43;;
20635;SDS011;10477;43.198;27.916;2022-07-29T10:30:21;25.50;;;23.70;;
20635;SDS011;10477;43.198;27.916;2022-07-29T10:32:58;23.52;;;21.82;;
20635;SDS011;10477;43.198;27.916;2022-07-29T10:35:37;23.73;;;22.02;;
20635;SDS011;10477;43.198;27.916;2022-07-29T10:44:12;24.70;;;23.00;;
20635;SDS011;10477;43.198;27.916;2022-07-29T10:46:42;24.72;;;22.93;;
20635;SDS011;10477;43.198;27.916;2022-07-29T10:49:11;23.15;;;21.55;;
20635;SDS011;10477;43.198;27.916;2022-07-29T10:54:39;24.95;;;23.25;;
20635;SDS011;10477;43.198;27.916;2022-07-29T10:57:22;23.92;;;22.13;;
20635;SDS011;10477;43.198;27.916;2022-07-29T11:02:42;23.80;;;22.10;;
20635;SDS011;10477;43.198;27.916;2022-07-29T11:05:16;24.40;;;22.70;;
20635;SDS011;10477;43.198;27.916;2022-07-29T11:10:38;24.30;;;22.48;;
20635;SDS011;10477;43.198;27.916;2022-07-29T11:13:07;23.73;;;22.02;;
20635;SDS011;10477;43.198;27.916;2022-07-29T11:18:22;22.45;;;20.75;;
20635;SDS011;10477;43.198;27.916;2022-07-29T11:20:51;24.75;;;22.75;;
20635;SDS011;10477;43.198;27.916;2022-07-29T11:31:43;25.10;;;23.20;;
20635;SDS011;10477;43.198;27.916;2022-07-29T11:39:37;24.27;;;22.58;;
20635;SDS011;10477;43.198;27.916;2022-07-29T11:45:01;24.67;;;22.98;;
20635;SDS011;10477;43.198;27.916;2022-07-29T11:47:34;25.70;;;23.83;;
20635;SDS011;10477;43.198;27.916;2022-07-29T11:50:07;24.98;;;23.27;;
20635;SDS011;10477;43.198;27.916;2022-07-29T11:52:37;25.57;;;23.77;;
20635;SDS011;10477;43.198;27.916;2022-07-29T11:55:12;23.70;;;22.00;;
20635;SDS011;10477;43.198;27.916;2022-07-29T11:57:48;24.43;;;22.80;;
20635;SDS011;10477;43.198;27.916;2022-07-29T12:00:29;24.72;;;23.02;;
20635;SDS011;10477;43.198;27.916;2022-07-29T12:03:00;23.65;;;22.05;;
20635;SDS011;10477;43.198;27.916;2022-07-29T12:05:37;23.60;;;21.90;;
20635;SDS011;10477;43.198;27.916;2022-07-29T12:08:14;23.92;;;22.22;;
20635;SDS011;10477;43.198;27.916;2022-07-29T12:10:44;24.65;;;22.85;;
20635;SDS011;10477;43.198;27.916;2022-07-29T12:13:13;25.00;;;23.20;;
20635;SDS011;10477;43.198;27.916;2022-07-29T12:15:42;24.95;;;23.22;;
20635;SDS011;10477;43.198;27.916;2022-07-29T12:18:12;24.85;;;23.12;;
20635;SDS011;10477;43.198;27.916;2022-07-29T12:20:42;24.60;;;22.90;;
20635;SDS011;10477;43.198;27.916;2022-07-29T12:23:10;25.05;;;23.25;;
20635;SDS011;10477;43.198;27.916;2022-07-29T12:25:38;25.10;;;23.30;;
20635;SDS011;10477;43.198;27.916;2022-07-29T12:28:13;25.08;;;23.27;;
20635;SDS011;10477;43.198;27.916;2022-07-29T12:30:40;24.75;;;23.05;;
20635;SDS011;10477;43.198;27.916;2022-07-29T12:33:16;25.00;;;23.30;;
20635;SDS011;10477;43.198;27.916;2022-07-29T12:35:57;26.20;;;24.40;;
20635;SDS011;10477;43.198;27.916;2022-07-29T12:38:22;25.20;;;23.40;;
20635;SDS011;10477;43.198;27.916;2022-07-29T12:40:51;25.43;;;23.62;;
20635;SDS011;10477;43.198;27.916;2022-07-29T12:43:21;25.15;;;23.35;;
20635;SDS011;10477;43.198;27.916;2022-07-29T12:45:51;24.75;;;22.95;;
20635;SDS011;10477;43.198;27.916;2022-07-29T12:48:37;25.45;;;23.65;;
20635;SDS011;10477;43.198;27.916;2022-07-29T12:51:04;25.25;;;22.90;;
20635;SDS011;10477;43.198;27.916;2022-07-29T12:53:34;24.00;;;22.30;;
20635;SDS011;10477;43.198;27.916;2022-07-29T12:56:04;26.12;;;24.20;;
20635;SDS011;10477;43.198;27.916;2022-07-29T12:58:39;26.30;;;24.40;;
20635;SDS011;10477;43.198;27.916;2022-07-29T13:01:12;26.75;;;24.65;;
20635;SDS011;10477;43.198;27.916;2022-07-29T13:04:00;25.50;;;23.50;;
20635;SDS011;10477;43.198;27.916;2022-07-29T13:09:09;26.05;;;24.05;;
20635;SDS011;10477;43.198;27.916;2022-07-29T13:11:47;26.52;;;24.52;;
20635;SDS011;10477;43.198;27.916;2022-07-29T13:14:32;26.55;;;24.55;;
20635;SDS011;10477;43.198;27.916;2022-07-29T13:17:15;26.17;;;24.18;;
20635;SDS011;10477;43.198;27.916;2022-07-29T13:19:47;27.02;;;24.72;;
20635;SDS011;10477;43.198;27.916;2022-07-29T13:22:17;26.40;;;24.40;;
20635;SDS011;10477;43.198;27.916;2022-07-29T13:27:27;26.50;;;24.30;;
20635;SDS011;10477;43.198;27.916;2022-07-29T13:29:57;27.80;;;25.60;;
20635;SDS011;10477;43.198;27.916;2022-07-29T13:32:28;26.90;;;24.90;;
20635;SDS011;10477;43.198;27.916;2022-07-29T13:34:59;27.13;;;24.98;;
20635;SDS011;10477;43.198;27.916;2022-07-29T13:37:30;27.45;;;25.35;;
20635;SDS011;10477;43.198;27.916;2022-07-29T13:39:59;27.10;;;24.90;;
20635;SDS011;10477;43.198;27.916;2022-07-29T13:42:28;28.90;;;26.50;;
20635;SDS011;10477;43.198;27.916;2022-07-29T13:44:57;26.77;;;24.57;;
20635;SDS011;10477;43.198;27.916;2022-07-29T13:47:25;26.85;;;24.45;;
20635;SDS011;10477;43.198;27.916;2022-07-29T13:49:54;28.10;;;25.77;;
20635;SDS011;10477;43.198;27.916;2022-07-29T13:52:22;26.77;;;24.57;;
20635;SDS011;10477;43.198;27.916;2022-07-29T13:54:50;28.55;;;26.35;;
20635;SDS011;10477;43.198;27.916;2022-07-29T13:57:18;28.23;;;25.92;;
20635;SDS011;10477;43.198;27.916;2022-07-29T13:59:45;26.70;;;24.50;;
20635;SDS011;10477;43.198;27.916;2022-07-29T14:02:13;28.45;;;26.15;;
20635;SDS011;10477;43.198;27.916;2022-07-29T14:04:41;29.37;;;27.07;;
20635;SDS011;10477;43.198;27.916;2022-07-29T14:07:09;30.27;;;27.93;;
20635;SDS011;10477;43.198;27.916;2022-07-29T14:09:37;33.80;;;31.20;;
20635;SDS011;10477;43.198;27.916;2022-07-29T14:12:05;28.87;;;26.57;;
20635;SDS011;10477;43.198;27.916;2022-07-29T14:14:33;28.92;;;26.62;;
20635;SDS011;10477;43.198;27.916;2022-07-29T14:17:02;28.55;;;26.15;;
20635;SDS011;10477;43.198;27.916;2022-07-29T14:19:31;33.15;;;30.27;;
20635;SDS011;10477;43.198;27.916;2022-07-29T14:22:07;28.83;;;26.52;;
20635;SDS011;10477;43.198;27.916;2022-07-29T14:24:31;28.60;;;26.30;;
20635;SDS011;10477;43.198;27.916;2022-07-29T14:26:59;28.60;;;26.30;;
20635;SDS011;10477;43.198;27.916;2022-07-29T14:29:27;30.27;;;27.62;;
20635;SDS011;10477;43.198;27.916;2022-07-29T14:31:56;30.12;;;27.52;;
20635;SDS011;10477;43.198;27.916;2022-07-29T14:34:24;31.87;;;29.37;;
20635;SDS011;10477;43.198;27.916;2022-07-29T14:36:51;30.25;;;27.85;;
20635;SDS011;10477;43.198;27.916;2022-07-29T14:39:21;28.42;;;26.02;;
20635;SDS011;10477;43.198;27.916;2022-07-29T14:41:49;36.17;;;33.02;;
20635;SDS011;10477;43.198;27.916;2022-07-29T14:44:17;32.15;;;29.85;;
20635;SDS011;10477;43.198;27.916;2022-07-29T14:46:45;28.77;;;26.37;;
20635;SDS011;10477;43.198;27.916;2022-07-29T14:49:13;27.52;;;25.20;;
20635;SDS011;10477;43.198;27.916;2022-07-29T14:51:40;27.30;;;25.00;;
20635;SDS011;10477;43.198;27.916;2022-07-29T14:54:08;27.35;;;25.08;;
20635;SDS011;10477;43.198;27.916;2022-07-29T14:56:36;30.00;;;26.82;;
20635;SDS011;10477;43.198;27.916;2022-07-29T14:59:03;27.07;;;24.77;;
20635;SDS011;10477;43.198;27.916;2022-07-29T15:01:31;27.10;;;24.80;;
20635;SDS011;10477;43.198;27.916;2022-07-29T15:03:59;26.20;;;24.00;;
20635;SDS011;10477;43.198;27.916;2022-07-29T15:06:27;27.90;;;25.60;;
20635;SDS011;10477;43.198;27.916;2022-07-29T15:08:54;27.32;;;25.12;;
20635;SDS011;10477;43.198;27.916;2022-07-29T15:11:22;28.20;;;26.00;;